Main page
Satellite images 15-day forecastsClimateMarine weather Cyclones Lightning AirportsFAQ Newsletter About
Weather : Europe Africa North America South America Asia Australia-Oceania Others
Languages Contact

London, England

City airport

latitude: 51-30N, longitude: 000-03E, elevation: 5 m


METAR: EGLC 181120Z 08008KT CAVOK 22/16 Q1009
short-TAF: EGLC 181057Z 1812/1821 09008KT 8000 SCT030 BECMG 1812/1815 9999
long-TAF: missing

Time: 12:39 (11:39 UTC)

Current weather observation

The report was made 19 minutes ago, at 11:20 UTC  
Wind 08 kt from the East
Temperature 22°C
Humidity 69%
Pressure 1009 hPa
Visibility 10 km or more
no clouds below 1500 m and no cumulonimbus

Change units

Forecast

The report was made 24 minutes ago, at 11:15 UTC  
Forecast valid from 18 at 12 UTC to 18 at 21 UTC
Wind 08 kt from the East
Visibility 8000 m
Scattered clouds at a height of 3000 ft
Becoming
from 18 at 12 UTC to 18 at 15 UTC
Visibility 10 km or more
The information on this site is subject to a disclaimer
Weather : Europe Africa North America South America Asia Australia-Oceania Others
Satellite images 15-day forecastsClimateMarine weather Cyclones Lightning AirportsFAQ Languages Contact Newsletter About